createdAt,value
2023-02-19T00:00:46.374Z,10.83
2023-02-19T00:06:49.151Z,12.17
2023-02-19T00:12:51.034Z,11.40
2023-02-19T00:18:54.916Z,12.13
2023-02-19T00:24:56.788Z,11.57
2023-02-19T00:31:15.311Z,11.40
2023-02-19T00:37:17.324Z,10.13
2023-02-19T00:43:19.226Z,10.30
2023-02-19T00:49:23.400Z,8.20
2023-02-19T00:55:25.322Z,7.10
2023-02-19T01:01:27.427Z,8.43
2023-02-19T01:07:29.901Z,6.40
2023-02-19T01:13:32.291Z,6.80
2023-02-19T01:19:34.187Z,6.07
2023-02-19T01:25:42.109Z,5.30
2023-02-19T01:31:44.073Z,5.10
2023-02-19T01:37:45.967Z,4.20
2023-02-19T01:44:08.912Z,4.03
2023-02-19T01:50:11.363Z,3.27
2023-02-19T01:56:16.625Z,3.30
2023-02-19T02:02:18.640Z,2.80
2023-02-19T02:08:39.511Z,2.83
2023-02-19T02:14:47.512Z,2.80
2023-02-19T02:21:46.268Z,2.77
2023-02-19T02:28:15.729Z,2.17
2023-02-19T02:34:54.402Z,1.93
2023-02-19T02:40:57.367Z,1.93
2023-02-19T02:46:59.309Z,1.60
2023-02-19T02:53:27.450Z,1.87
2023-02-19T02:59:34.165Z,1.90
2023-02-19T03:05:51.532Z,2.47
2023-02-19T03:12:13.774Z,2.20
2023-02-19T03:18:37.011Z,1.90
2023-02-19T03:25:12.730Z,1.73
2023-02-19T03:31:19.663Z,1.73
2023-02-19T03:37:44.078Z,1.63
2023-02-19T03:44:17.768Z,2.23
2023-02-19T03:50:50.149Z,1.87
2023-02-19T03:57:07.178Z,2.70
2023-02-19T04:03:18.480Z,2.47
2023-02-19T04:09:23.429Z,4.20
2023-02-19T04:15:31.989Z,3.97
2023-02-19T04:21:37.108Z,3.70
2023-02-19T04:27:40.161Z,4.50
2023-02-19T04:33:42.057Z,5.17
2023-02-19T04:39:44.020Z,5.57
2023-02-19T04:45:46.000Z,5.80
2023-02-19T04:51:47.937Z,6.83
2023-02-19T04:57:49.843Z,5.73
2023-02-19T05:03:52.214Z,6.73
2023-02-19T05:09:54.203Z,7.00
2023-02-19T05:16:03.638Z,7.53
2023-02-19T05:22:05.617Z,6.43
2023-02-19T05:28:19.694Z,7.93
2023-02-19T05:34:21.619Z,7.90
2023-02-19T05:40:23.501Z,9.07
2023-02-19T05:46:32.419Z,8.63
2023-02-19T05:52:34.475Z,8.27
2023-02-19T05:58:36.354Z,9.70
2023-02-19T06:04:38.264Z,10.47
2023-02-19T06:10:41.360Z,9.33
2023-02-19T06:16:43.312Z,7.23
2023-02-19T06:22:45.188Z,8.17
2023-02-19T06:28:48.969Z,6.77
2023-02-19T06:34:50.880Z,2.00
2023-02-19T06:40:52.782Z,1.07
2023-02-19T06:46:57.758Z,0.83
2023-02-19T06:52:59.824Z,0.80
2023-02-19T06:59:05.163Z,0.77
2023-02-19T07:05:07.178Z,0.70
2023-02-19T07:11:09.385Z,0.80
2023-02-19T07:17:11.475Z,0.90
2023-02-19T07:23:13.365Z,0.70
2023-02-19T07:29:15.281Z,0.80
2023-02-19T07:35:17.265Z,0.70
2023-02-19T07:41:19.196Z,0.90
2023-02-19T07:47:21.069Z,1.00
2023-02-19T07:53:24.747Z,0.80
2023-02-19T07:59:26.630Z,0.83
2023-02-19T08:05:31.632Z,0.93
2023-02-19T08:11:52.195Z,0.90
2023-02-19T08:17:54.138Z,0.80
2023-02-19T08:23:56.058Z,0.70
2023-02-19T08:29:57.931Z,0.70
2023-02-19T08:36:07.520Z,0.80
2023-02-19T08:42:09.392Z,0.93
2023-02-19T08:48:12.142Z,1.20
2023-02-19T08:54:14.087Z,0.87
2023-02-19T09:00:16.454Z,0.90
2023-02-19T09:06:22.292Z,0.83
2023-02-19T09:12:25.112Z,0.80
2023-02-19T09:18:27.176Z,0.77
2023-02-19T09:24:29.133Z,0.60
2023-02-19T09:30:31.057Z,0.60
2023-02-19T09:36:35.962Z,0.87
2023-02-19T09:42:42.332Z,0.70
2023-02-19T09:48:44.270Z,0.90
2023-02-19T09:54:47.576Z,0.90
2023-02-19T10:00:51.289Z,0.80
2023-02-19T10:06:53.431Z,0.90
2023-02-19T10:13:12.016Z,1.10
2023-02-19T10:19:15.477Z,1.00
2023-02-19T10:25:17.836Z,1.27
2023-02-19T10:31:24.568Z,1.00
2023-02-19T10:37:26.590Z,1.60
2023-02-19T10:43:36.518Z,2.43
2023-02-19T10:49:43.289Z,1.53
2023-02-19T10:55:46.614Z,2.07
2023-02-19T11:01:59.158Z,2.70
2023-02-19T11:08:01.326Z,1.80
2023-02-19T11:14:16.703Z,2.00
2023-02-19T11:20:18.752Z,0.93
2023-02-19T11:26:26.946Z,1.00
2023-02-19T11:32:30.786Z,1.27
2023-02-19T11:38:32.685Z,1.20
2023-02-19T11:44:53.316Z,1.40
2023-02-19T11:51:30.542Z,2.40
2023-02-19T11:57:54.087Z,1.00
2023-02-19T12:04:42.002Z,0.90
2023-02-19T12:10:43.774Z,1.70
2023-02-19T12:17:19.637Z,2.07
2023-02-19T12:24:02.877Z,2.13
2023-02-19T12:30:32.616Z,0.90
2023-02-19T12:36:40.177Z,0.97
2023-02-19T12:43:12.125Z,1.43
2023-02-19T12:49:30.568Z,6.03
2023-02-19T12:55:42.973Z,3.60
2023-02-19T13:02:14.143Z,1.20
2023-02-19T13:08:45.345Z,1.50
2023-02-19T13:15:04.346Z,1.30
2023-02-19T13:21:06.955Z,0.90
2023-02-19T13:27:50.926Z,1.50
2023-02-19T13:34:58.296Z,1.53
2023-02-19T13:41:00.766Z,1.37
2023-02-19T13:47:06.122Z,1.50
2023-02-19T13:53:44.702Z,1.27
2023-02-19T13:59:48.288Z,1.30
2023-02-19T14:06:11.264Z,1.40
2023-02-19T14:12:15.430Z,1.83
2023-02-19T14:18:44.677Z,1.40
2023-02-19T14:24:46.677Z,1.73
2023-02-19T14:30:55.363Z,1.30
2023-02-19T14:37:01.421Z,1.40
2023-02-19T14:43:06.147Z,1.80
2023-02-19T14:49:46.209Z,2.20
2023-02-19T14:55:50.042Z,2.00
2023-02-19T15:02:25.921Z,2.13
2023-02-19T15:08:39.814Z,2.90
2023-02-19T15:14:41.836Z,2.47
2023-02-19T15:20:43.788Z,4.80
2023-02-19T15:26:54.385Z,3.70
2023-02-19T15:33:00.736Z,8.57
2023-02-19T15:39:03.548Z,7.60
2023-02-19T15:45:18.130Z,2.30
2023-02-19T15:51:31.500Z,3.17
2023-02-19T15:57:40.727Z,2.27
2023-02-19T16:03:43.039Z,3.40
2023-02-19T16:09:44.913Z,2.07
2023-02-19T16:15:59.564Z,2.20
2023-02-19T16:22:01.624Z,1.60
2023-02-19T16:28:26.470Z,1.43
2023-02-19T16:34:44.048Z,1.80
2023-02-19T16:40:48.589Z,1.63
2023-02-19T16:47:06.627Z,1.50
2023-02-19T16:53:19.450Z,1.70
2023-02-19T16:59:21.361Z,1.30
2023-02-19T17:05:26.023Z,1.40
2023-02-19T17:11:27.926Z,1.30
2023-02-19T17:17:29.818Z,1.10
2023-02-19T17:23:31.721Z,1.47
2023-02-19T17:29:33.976Z,2.30
2023-02-19T17:35:35.951Z,2.37
2023-02-19T17:41:37.838Z,1.90
2023-02-19T17:47:39.741Z,1.40
2023-02-19T17:53:42.465Z,1.50
2023-02-19T17:59:44.359Z,1.83
2023-02-19T18:05:46.308Z,1.80
2023-02-19T18:11:48.690Z,1.47
2023-02-19T18:17:51.141Z,1.63
2023-02-19T18:23:53.056Z,2.20
2023-02-19T18:29:56.432Z,2.17
2023-02-19T18:35:58.305Z,1.80
2023-02-19T18:42:01.083Z,2.13
2023-02-19T18:48:04.997Z,2.47
2023-02-19T18:54:07.883Z,2.80
2023-02-19T19:00:11.784Z,2.50
2023-02-19T19:06:13.751Z,3.30
2023-02-19T19:12:16.016Z,4.50
2023-02-19T19:18:18.434Z,4.70
2023-02-19T19:24:22.383Z,3.20
2023-02-19T19:30:24.667Z,3.50
2023-02-19T19:36:26.566Z,3.90
2023-02-19T19:42:28.618Z,3.40
2023-02-19T19:48:30.622Z,4.00
2023-02-19T19:54:32.576Z,3.90
2023-02-19T20:00:34.462Z,4.03
2023-02-19T20:06:36.347Z,5.23
2023-02-19T20:12:41.926Z,3.40
2023-02-19T20:18:43.822Z,3.27
2023-02-19T20:24:53.730Z,5.90
2023-02-19T20:30:55.659Z,3.30
2023-02-19T20:36:57.775Z,3.37
2023-02-19T20:43:00.987Z,3.40
2023-02-19T20:49:02.863Z,4.67
2023-02-19T20:55:05.779Z,4.63
2023-02-19T21:01:08.310Z,5.10
2023-02-19T21:07:10.230Z,5.00
2023-02-19T21:13:12.513Z,6.20
2023-02-19T21:19:14.430Z,6.50
2023-02-19T21:25:16.357Z,5.00
2023-02-19T21:31:19.183Z,7.10
2023-02-19T21:37:21.182Z,6.33
2023-02-19T21:43:23.190Z,6.20
2023-02-19T21:49:25.298Z,4.80
2023-02-19T21:55:28.729Z,5.57
2023-02-19T22:01:34.636Z,5.80
2023-02-19T22:07:36.838Z,4.97
2023-02-19T22:13:39.618Z,5.10
2023-02-19T22:19:41.665Z,5.83
2023-02-19T22:25:43.636Z,5.40
2023-02-19T22:31:45.654Z,6.07
2023-02-19T22:37:47.579Z,5.07
2023-02-19T22:43:50.170Z,5.57
2023-02-19T22:49:52.105Z,4.43
2023-02-19T22:55:53.999Z,5.30
2023-02-19T23:01:56.306Z,4.70
2023-02-19T23:07:58.188Z,6.50
2023-02-19T23:14:00.372Z,6.83
2023-02-19T23:20:03.167Z,5.70
2023-02-19T23:26:05.309Z,5.10
2023-02-19T23:32:07.204Z,4.87
2023-02-19T23:38:10.112Z,4.50
2023-02-19T23:44:12.032Z,4.43
2023-02-19T23:50:16.224Z,3.83
2023-02-19T23:56:26.011Z,4.60
